| time (UTC) | temp F | wind direction | speed MPH | gust MPH | rain 1hr in | rain 24hr in | rain mn in | humidity % | barometer mb |
| 20260507201537 | 66 | 16 | 2.0 | 13.0 | 0.00 | 0.27 | 0.16 | 31 | 1007.2 |
| 20260507200037 | 64 | 284 | 2.0 | 9.0 | 0.00 | 0.27 | 0.16 | 31 | 1007.3 |
| 20260507194534 | 65 | 277 | 5.0 | 12.0 | 0.00 | 0.29 | 0.16 | 29 | 1007.4 |
| 20260507193035 | 67 | 327 | 2.0 | 9.0 | 0.00 | 0.29 | 0.16 | 31 | 1007.6 |
| 20260507191534 | 63 | 301 | 3.0 | 10.0 | 0.00 | 0.29 | 0.16 | 31 | 1007.6 |
| 20260507190040 | 64 | 248 | 5.0 | 10.0 | 0.00 | 0.29 | 0.16 | 30 | 1007.9 |
| 20260507184537 | 65 | 360 | 3.0 | 10.0 | 0.00 | 0.30 | 0.16 | 29 | 1008.0 |
| 20260507183040 | 62 | 249 | 3.0 | 13.0 | 0.00 | 0.30 | 0.16 | 31 | 1008.3 |
| 20260507181533 | 66 | 277 | 2.0 | 10.0 | 0.00 | 0.30 | 0.16 | 29 | 1008.5 |
| 20260507180035 | 64 | 32 | 3.0 | 11.0 | 0.00 | 0.30 | 0.16 | 30 | 1008.6 |
| 20260507174538 | 63 | 36 | 2.0 | 11.0 | 0.00 | 0.33 | 0.16 | 34 | 1008.8 |
| 20260507173035 | 62 | 287 | 2.0 | 7.0 | 0.00 | 0.33 | 0.16 | 32 | 1008.9 |
| 20260507171534 | 61 | 348 | 3.0 | 12.0 | 0.00 | 0.33 | 0.16 | 34 | 1009.1 |
| 20260507170036 | 60 | 294 | 5.0 | 15.0 | 0.00 | 0.33 | 0.16 | 37 | 1009.3 |
| 20260507164533 | 61 | 330 | 1.0 | 7.0 | 0.00 | 0.35 | 0.16 | 35 | 1009.6 |
| 20260507163034 | 59 | 340 | 3.0 | 10.0 | 0.00 | 0.35 | 0.16 | 38 | 1009.7 |
| 20260507161531 | 60 | 307 | 2.0 | 11.0 | 0.00 | 0.35 | 0.16 | 32 | 1009.8 |
| 20260507160030 | 61 | 334 | 3.0 | 16.0 | 0.00 | 0.35 | 0.16 | 33 | 1009.9 |
| 20260507154538 | 58 | 342 | 4.0 | 9.0 | 0.00 | 0.35 | 0.16 | 35 | 1010.1 |
| 20260507153044 | 60 | 329 | 1.0 | 12.0 | 0.00 | 0.35 | 0.16 | 38 | 1010.2 |
| 20260507151534 | 58 | 325 | 2.0 | 13.0 | 0.00 | 0.35 | 0.16 | 48 | 1010.4 |
| 20260507150033 | 56 | 295 | 6.0 | 15.0 | 0.00 | 0.35 | 0.16 | 45 | 1010.5 |
| 20260507144535 | 56 | 11 | 4.0 | 13.0 | 0.00 | 0.35 | 0.16 | 53 | 1010.4 |
| 20260507143035 | 56 | 316 | 4.0 | 17.0 | 0.00 | 0.35 | 0.16 | 59 | 1010.3 |
| 20260507141534 | 55 | 346 | 3.0 | 11.0 | 0.00 | 0.35 | 0.16 | 65 | 1010.4 |
| 20260507140039 | 54 | 305 | 4.0 | 13.0 | 0.00 | 0.35 | 0.16 | 65 | 1010.3 |
| 20260507134532 | 53 | 276 | 5.0 | 11.0 | 0.00 | 0.35 | 0.16 | 68 | 1010.5 |
| 20260507133035 | 55 | 309 | 3.0 | 9.0 | 0.00 | 0.35 | 0.16 | 68 | 1010.7 |
| 20260507131537 | 54 | 333 | 2.0 | 5.0 | 0.00 | 0.35 | 0.16 | 75 | 1010.6 |
| 20260507130041 | 52 | 260 | 2.0 | 7.0 | 0.00 | 0.35 | 0.16 | 80 | 1010.4 |
| 20260507124541 | 51 | 306 | 2.0 | 5.0 | 0.00 | 0.35 | 0.16 | 85 | 1010.8 |
| 20260507123038 | 49 | 0 | 0.0 | 4.0 | 0.00 | 0.35 | 0.16 | 88 | 1010.7 |
| 20260507121541 | 49 | 263 | 1.0 | 4.0 | 0.00 | 0.35 | 0.16 | 89 | 1010.5 |
| 20260507120034 | 49 | 352 | 2.0 | 4.0 | 0.00 | 0.35 | 0.16 | 89 | 1010.4 |
| 20260507114533 | 48 | 0 | 0.0 | 2.0 | 0.00 | 0.35 | 0.16 | 89 | 1010.3 |
| 20260507113038 | 48 | 0 | 0.0 | 2.0 | 0.00 | 0.35 | 0.16 | 89 | 1010.3 |
| 20260507111530 | 48 | 292 | 0.0 | 2.0 | 0.00 | 0.35 | 0.16 | 89 | 1010.0 |
| 20260507110032 | 48 | 271 | 0.0 | 0.0 | 0.00 | 0.35 | 0.16 | 89 | 1010.0 |
| 20260507104534 | 48 | 0 | 0.0 | 3.0 | 0.00 | 0.35 | 0.16 | 89 | 1009.7 |
| 20260507103033 | 48 | 0 | 2.0 | 4.0 | 0.00 | 0.35 | 0.16 | 89 | 1009.5 |
| 20260507101541 | 48 | 298 | 2.0 | 9.0 | 0.00 | 0.35 | 0.16 | 89 | 1009.1 |
| 20260507100035 | 48 | 298 | 3.0 | 9.0 | 0.01 | 0.35 | 0.16 | 89 | 1009.1 |
| 20260507094531 | 48 | 321 | 2.0 | 9.0 | 0.02 | 0.35 | 0.16 | 89 | 1009.2 |
| 20260507093039 | 48 | 293 | 2.0 | 8.0 | 0.03 | 0.35 | 0.16 | 89 | 1009.1 |
| 20260507091533 | 48 | 311 | 3.0 | 9.0 | 0.04 | 0.35 | 0.16 | 90 | 1009.1 |
| 20260507090034 | 48 | 338 | 2.0 | 9.0 | 0.05 | 0.34 | 0.15 | 90 | 1008.9 |
| 20260507084532 | 49 | 286 | 2.0 | 7.0 | 0.04 | 0.33 | 0.14 | 90 | 1009.2 |
| 20260507083041 | 49 | 352 | 2.0 | 6.0 | 0.05 | 0.32 | 0.13 | 90 | 1009.6 |
| 20260507081534 | 49 | 329 | 3.0 | 9.0 | 0.04 | 0.30 | 0.11 | 89 | 1009.3 |
| 20260507080035 | 49 | 302 | 4.0 | 9.0 | 0.04 | 0.29 | 0.10 | 89 | 1009.2 |
| 20260507074537 | 49 | 317 | 3.0 | 8.0 | 0.06 | 0.29 | 0.10 | 89 | 1009.1 |
| 20260507073030 | 50 | 336 | 2.0 | 10.0 | 0.04 | 0.27 | 0.08 | 89 | 1009.1 |
| 20260507071552 | 50 | 304 | 4.0 | 9.0 | 0.05 | 0.26 | 0.07 | 88 | 1008.9 |
| 20260507070038 | 50 | 309 | 3.0 | 9.0 | 0.05 | 0.25 | 0.06 | 88 | 1008.9 |
| 20260507064534 | 51 | 300 | 4.0 | 10.0 | 0.03 | 0.23 | 0.04 | 87 | 1009.0 |
| 20260507063039 | 51 | 13 | 2.0 | 6.0 | 0.04 | 0.23 | 0.04 | 87 | 1008.7 |
| 20260507061532 | 52 | 280 | 2.0 | 4.0 | 0.02 | 0.21 | 0.02 | 86 | 1008.6 |
| 20260507060030 | 52 | 280 | 2.0 | 4.0 | 0.01 | 0.20 | 0.01 | 85 | 1008.8 |
| 20260507054536 | 53 | 276 | 3.0 | 9.0 | 0.01 | 0.20 | 0.01 | 85 | 1008.4 |
| 20260507053041 | 54 | 292 | 1.0 | 8.0 | 0.00 | 0.19 | 0.00 | 84 | 1008.2 |
| 20260507051535 | 54 | 314 | 2.0 | 8.0 | 0.00 | 0.19 | 0.00 | 85 | 1008.3 |
| 20260507050033 | 54 | 311 | 3.0 | 9.0 | 0.00 | 0.19 | 0.00 | 87 | 1008.3 |
| 20260507044535 | 54 | 291 | 1.0 | 7.0 | 0.00 | 0.19 | 0.00 | 88 | 1008.3 |
| 20260507043037 | 54 | 328 | 3.0 | 7.0 | 0.00 | 0.19 | 0.00 | 88 | 1008.4 |
| 20260507041533 | 55 | 289 | 2.0 | 4.0 | 0.00 | 0.19 | 0.00 | 89 | 1008.7 |
| 20260507040035 | 55 | 318 | 1.0 | 7.0 | 0.00 | 0.19 | 0.00 | 89 | 1008.5 |
| 20260507034530 | 55 | 338 | 1.0 | 5.0 | 0.00 | 0.19 | 0.19 | 90 | 1008.3 |
| 20260507033036 | 55 | 275 | 3.0 | 6.0 | 0.00 | 0.19 | 0.19 | 90 | 1008.2 |
| 20260507031535 | 55 | 315 | 1.0 | 7.0 | 0.00 | 0.19 | 0.19 | 90 | 1007.9 |
| 20260507030035 | 56 | 298 | 1.0 | 4.0 | 0.02 | 0.19 | 0.19 | 90 | 1008.4 |
| 20260507024535 | 56 | 308 | 1.0 | 6.0 | 0.10 | 0.19 | 0.19 | 90 | 1008.6 |
| 20260507023033 | 57 | 302 | 2.0 | 6.0 | 0.10 | 0.19 | 0.19 | 90 | 1008.6 |
| 20260507021532 | 58 | 341 | 2.0 | 8.0 | 0.10 | 0.19 | 0.19 | 90 | 1008.4 |
| 20260507020035 | 59 | 0 | 1.0 | 5.0 | 0.08 | 0.17 | 0.17 | 91 | 1008.3 |
| 20260507014535 | 58 | 0 | 0.0 | 0.0 | 0.00 | 0.09 | 0.09 | 91 | 1007.6 |
| 20260507013038 | 58 | 0 | 0.0 | 0.0 | 0.00 | 0.09 | 0.09 | 91 | 1007.7 |
| 20260507011539 | 58 | 0 | 0.0 | 0.0 | 0.00 | 0.09 | 0.09 | 91 | 1007.5 |
| 20260507010031 | 58 | 0 | 0.0 | 0.0 | 0.00 | 0.09 | 0.09 | 91 | 1007.4 |
| 20260507004530 | 58 | 0 | 0.0 | 0.0 | 0.00 | 0.09 | 0.09 | 91 | 1007.3 |
| 20260507003035 | 59 | 0 | 0.0 | 0.0 | 0.00 | 0.09 | 0.09 | 91 | 1007.2 |
| 20260507001546 | 59 | 0 | 0.0 | 2.0 | 0.00 | 0.09 | 0.09 | 91 | 1007.2 |
| 20260507000038 | 59 | 0 | 0.0 | 0.0 | 0.00 | 0.09 | 0.09 | 91 | 1007.2 |
| 20260506234541 | 60 | 0 | 0.0 | 0.0 | 0.00 | 0.09 | 0.09 | 91 | 1006.9 |
| 20260506233035 | 60 | 0 | 0.0 | 2.0 | 0.00 | 0.09 | 0.09 | 91 | 1007.2 |
| 20260506231537 | 59 | 0 | 0.0 | 0.0 | 0.00 | 0.09 | 0.09 | 91 | 1007.2 |
| 20260506230035 | 59 | 0 | 0.0 | 0.0 | 0.00 | 0.09 | 0.09 | 91 | 1007.1 |
| 20260506224534 | 59 | 0 | 0.0 | 0.0 | 0.00 | 0.09 | 0.09 | 91 | 1006.9 |
| 20260506223031 | 59 | 0 | 0.0 | 0.0 | 0.00 | 0.09 | 0.09 | 91 | 1006.9 |
| 20260506221530 | 59 | 0 | 0.0 | 0.0 | 0.00 | 0.09 | 0.09 | 91 | 1006.8 |
| 20260506220030 | 59 | 0 | 0.0 | 0.0 | 0.00 | 0.09 | 0.09 | 91 | 1006.7 |
| 20260506214535 | 59 | 0 | 0.0 | 0.0 | 0.00 | 0.09 | 0.09 | 90 | 1006.7 |
| 20260506213034 | 59 | 153 | 0.0 | 4.0 | 0.00 | 0.09 | 0.09 | 90 | 1006.5 |
| 20260506211536 | 59 | 0 | 1.0 | 5.0 | 0.00 | 0.09 | 0.09 | 90 | 1006.7 |
| 20260506210035 | 59 | 141 | 1.0 | 5.0 | 0.01 | 0.09 | 0.09 | 90 | 1006.4 |
| 20260506204536 | 59 | 116 | 1.0 | 4.0 | 0.02 | 0.09 | 0.09 | 90 | 1006.2 |
| 20260506203057 | 60 | 201 | 1.0 | 8.0 | 0.02 | 0.09 | 0.09 | 89 | 1006.3 |